sensor_id;sensor_type;location;lat;lon;timestamp;temperature;humidity
60868;DHT22;46702;48.370;10.794;2023-04-06T00:01:36;-1.50;99.90
60868;DHT22;46702;48.370;10.794;2023-04-06T00:04:01;-1.50;99.90
60868;DHT22;46702;48.370;10.794;2023-04-06T00:06:27;-1.40;99.90
60868;DHT22;46702;48.370;10.794;2023-04-06T00:08:53;-1.30;99.90
60868;DHT22;46702;48.370;10.794;2023-04-06T00:11:18;-1.30;99.90
60868;DHT22;46702;48.370;10.794;2023-04-06T00:17:07;-1.50;99.90
60868;DHT22;46702;48.370;10.794;2023-04-06T00:19:33;-1.60;99.90
60868;DHT22;46702;48.370;10.794;2023-04-06T00:21:58;-1.50;99.90
60868;DHT22;46702;48.370;10.794;2023-04-06T00:24:24;-1.60;99.90
60868;DHT22;46702;48.370;10.794;2023-04-06T00:26:50;-1.60;99.90
60868;DHT22;46702;48.370;10.794;2023-04-06T00:29:16;-1.70;99.90
60868;DHT22;46702;48.370;10.794;2023-04-06T00:31:41;-1.70;99.90
60868;DHT22;46702;48.370;10.794;2023-04-06T00:34:07;-1.50;99.90
60868;DHT22;46702;48.370;10.794;2023-04-06T00:36:32;-1.50;99.90
60868;DHT22;46702;48.370;10.794;2023-04-06T00:38:58;-1.40;99.90
60868;DHT22;46702;48.370;10.794;2023-04-06T00:41:24;-1.40;99.90
60868;DHT22;46702;48.370;10.794;2023-04-06T00:43:50;-1.40;99.90
60868;DHT22;46702;48.370;10.794;2023-04-06T00:46:15;-1.40;99.90
60868;DHT22;46702;48.370;10.794;2023-04-06T00:48:41;-1.40;99.90
60868;DHT22;46702;48.370;10.794;2023-04-06T00:51:06;-1.40;99.90
60868;DHT22;46702;48.370;10.794;2023-04-06T00:53:32;-1.50;99.90
60868;DHT22;46702;48.370;10.794;2023-04-06T00:55:58;-1.50;99.90
60868;DHT22;46702;48.370;10.794;2023-04-06T00:58:24;-1.50;99.90
60868;DHT22;46702;48.370;10.794;2023-04-06T01:00:50;-1.50;99.90
60868;DHT22;46702;48.370;10.794;2023-04-06T01:03:15;-1.50;99.90
60868;DHT22;46702;48.370;10.794;2023-04-06T01:05:41;-1.50;99.90
60868;DHT22;46702;48.370;10.794;2023-04-06T01:08:08;-1.70;99.90
60868;DHT22;46702;48.370;10.794;2023-04-06T01:10:34;-1.70;99.90
60868;DHT22;46702;48.370;10.794;2023-04-06T01:13:00;-1.70;99.90
60868;DHT22;46702;48.370;10.794;2023-04-06T01:15:27;-1.80;99.90
60868;DHT22;46702;48.370;10.794;2023-04-06T01:17:53;-1.90;99.90
60868;DHT22;46702;48.370;10.794;2023-04-06T01:20:19;-1.90;99.90
60868;DHT22;46702;48.370;10.794;2023-04-06T01:22:45;-2.00;99.90
60868;DHT22;46702;48.370;10.794;2023-04-06T01:25:11;-1.90;99.90
60868;DHT22;46702;48.370;10.794;2023-04-06T01:27:36;-1.80;99.90
60868;DHT22;46702;48.370;10.794;2023-04-06T01:30:02;-1.80;99.90
60868;DHT22;46702;48.370;10.794;2023-04-06T01:32:28;-1.80;99.90
60868;DHT22;46702;48.370;10.794;2023-04-06T01:34:54;-1.70;99.90
60868;DHT22;46702;48.370;10.794;2023-04-06T01:37:20;-1.70;99.90
60868;DHT22;46702;48.370;10.794;2023-04-06T01:39:46;-1.80;99.90
60868;DHT22;46702;48.370;10.794;2023-04-06T01:42:11;-1.80;99.90
60868;DHT22;46702;48.370;10.794;2023-04-06T01:44:37;-1.80;99.90
60868;DHT22;46702;48.370;10.794;2023-04-06T01:47:03;-1.80;99.90
60868;DHT22;46702;48.370;10.794;2023-04-06T01:49:28;-1.90;99.90
60868;DHT22;46702;48.370;10.794;2023-04-06T01:51:54;-1.90;99.90
60868;DHT22;46702;48.370;10.794;2023-04-06T01:54:20;-1.90;99.90
60868;DHT22;46702;48.370;10.794;2023-04-06T02:00:08;-2.00;99.90
60868;DHT22;46702;48.370;10.794;2023-04-06T02:02:34;-2.00;99.90
60868;DHT22;46702;48.370;10.794;2023-04-06T02:05:00;-1.90;99.90
60868;DHT22;46702;48.370;10.794;2023-04-06T02:07:26;-2.00;99.90
60868;DHT22;46702;48.370;10.794;2023-04-06T02:09:54;-2.00;99.90
60868;DHT22;46702;48.370;10.794;2023-04-06T02:12:20;-1.90;99.90
60868;DHT22;46702;48.370;10.794;2023-04-06T02:14:46;-2.00;99.90
60868;DHT22;46702;48.370;10.794;2023-04-06T02:17:12;-2.00;99.90
60868;DHT22;46702;48.370;10.794;2023-04-06T02:19:38;-2.00;99.90
60868;DHT22;46702;48.370;10.794;2023-04-06T02:22:03;-2.00;99.90
60868;DHT22;46702;48.370;10.794;2023-04-06T02:24:29;-2.00;99.90
60868;DHT22;46702;48.370;10.794;2023-04-06T02:26:55;-2.00;99.90
60868;DHT22;46702;48.370;10.794;2023-04-06T02:29:20;-2.00;99.90
60868;DHT22;46702;48.370;10.794;2023-04-06T02:31:46;-2.00;99.90
60868;DHT22;46702;48.370;10.794;2023-04-06T02:34:12;-2.00;99.90
60868;DHT22;46702;48.370;10.794;2023-04-06T02:36:44;-2.10;99.90
60868;DHT22;46702;48.370;10.794;2023-04-06T02:39:10;-2.10;99.90
60868;DHT22;46702;48.370;10.794;2023-04-06T02:41:35;-2.10;99.90
60868;DHT22;46702;48.370;10.794;2023-04-06T02:44:02;-2.10;99.90
60868;DHT22;46702;48.370;10.794;2023-04-06T02:46:27;-2.10;99.90
60868;DHT22;46702;48.370;10.794;2023-04-06T02:48:53;-2.20;99.90
60868;DHT22;46702;48.370;10.794;2023-04-06T02:51:19;-2.30;99.90
60868;DHT22;46702;48.370;10.794;2023-04-06T02:53:44;-2.30;99.90
60868;DHT22;46702;48.370;10.794;2023-04-06T02:56:10;-2.30;99.90
60868;DHT22;46702;48.370;10.794;2023-04-06T02:58:36;-2.40;99.90
60868;DHT22;46702;48.370;10.794;2023-04-06T03:01:02;-2.40;99.90
60868;DHT22;46702;48.370;10.794;2023-04-06T03:03:28;-2.40;99.90
60868;DHT22;46702;48.370;10.794;2023-04-06T03:05:54;-2.50;99.90
60868;DHT22;46702;48.370;10.794;2023-04-06T03:08:21;-2.50;99.90
60868;DHT22;46702;48.370;10.794;2023-04-06T03:10:47;-2.60;99.90
60868;DHT22;46702;48.370;10.794;2023-04-06T03:13:12;-2.70;99.90
60868;DHT22;46702;48.370;10.794;2023-04-06T03:15:38;-2.80;99.90
60868;DHT22;46702;48.370;10.794;2023-04-06T03:18:04;-2.70;99.90
60868;DHT22;46702;48.370;10.794;2023-04-06T03:20:29;-2.70;99.90
60868;DHT22;46702;48.370;10.794;2023-04-06T03:22:55;-2.60;99.90
60868;DHT22;46702;48.370;10.794;2023-04-06T03:25:21;-2.60;99.90
60868;DHT22;46702;48.370;10.794;2023-04-06T03:27:46;-2.60;99.90
60868;DHT22;46702;48.370;10.794;2023-04-06T03:30:12;-2.60;99.90
60868;DHT22;46702;48.370;10.794;2023-04-06T03:32:38;-2.70;99.90
60868;DHT22;46702;48.370;10.794;2023-04-06T03:35:04;-2.70;99.90
60868;DHT22;46702;48.370;10.794;2023-04-06T03:37:30;-2.60;99.90
60868;DHT22;46702;48.370;10.794;2023-04-06T03:39:55;-2.60;99.90
60868;DHT22;46702;48.370;10.794;2023-04-06T03:42:21;-2.60;99.90
60868;DHT22;46702;48.370;10.794;2023-04-06T03:44:46;-2.70;99.90
60868;DHT22;46702;48.370;10.794;2023-04-06T03:47:12;-2.70;99.90
60868;DHT22;46702;48.370;10.794;2023-04-06T03:49:38;-2.80;99.90
60868;DHT22;46702;48.370;10.794;2023-04-06T03:52:04;-2.80;99.90
60868;DHT22;46702;48.370;10.794;2023-04-06T03:54:29;-2.80;99.90
60868;DHT22;46702;48.370;10.794;2023-04-06T03:56:55;-2.90;99.90
60868;DHT22;46702;48.370;10.794;2023-04-06T03:59:21;-2.90;99.90
60868;DHT22;46702;48.370;10.794;2023-04-06T04:01:47;-2.90;99.90
60868;DHT22;46702;48.370;10.794;2023-04-06T04:04:13;-2.90;99.90
60868;DHT22;46702;48.370;10.794;2023-04-06T04:06:38;-2.90;99.90
60868;DHT22;46702;48.370;10.794;2023-04-06T04:09:04;-2.80;99.90
60868;DHT22;46702;48.370;10.794;2023-04-06T04:11:30;-2.80;99.90
60868;DHT22;46702;48.370;10.794;2023-04-06T04:13:55;-2.90;99.90
60868;DHT22;46702;48.370;10.794;2023-04-06T04:16:21;-2.90;99.90
60868;DHT22;46702;48.370;10.794;2023-04-06T04:18:47;-2.90;99.90
60868;DHT22;46702;48.370;10.794;2023-04-06T04:21:14;-2.90;99.90
60868;DHT22;46702;48.370;10.794;2023-04-06T04:23:39;-3.00;99.90
60868;DHT22;46702;48.370;10.794;2023-04-06T04:26:05;-3.10;99.90
60868;DHT22;46702;48.370;10.794;2023-04-06T04:28:31;-3.00;99.90
60868;DHT22;46702;48.370;10.794;2023-04-06T04:30:56;-3.00;99.90
60868;DHT22;46702;48.370;10.794;2023-04-06T04:33:22;-3.00;99.90
60868;DHT22;46702;48.370;10.794;2023-04-06T04:35:48;-3.10;99.90
60868;DHT22;46702;48.370;10.794;2023-04-06T04:38:14;-3.10;99.90
60868;DHT22;46702;48.370;10.794;2023-04-06T04:40:40;-3.10;99.90
60868;DHT22;46702;48.370;10.794;2023-04-06T04:43:05;-3.10;99.90
60868;DHT22;46702;48.370;10.794;2023-04-06T04:45:31;-3.10;99.90
60868;DHT22;46702;48.370;10.794;2023-04-06T04:47:57;-3.00;99.90
60868;DHT22;46702;48.370;10.794;2023-04-06T04:50:22;-3.10;99.90
60868;DHT22;46702;48.370;10.794;2023-04-06T04:52:48;-3.00;99.90
60868;DHT22;46702;48.370;10.794;2023-04-06T04:55:14;-3.10;99.90
60868;DHT22;46702;48.370;10.794;2023-04-06T04:57:40;-3.10;99.90
60868;DHT22;46702;48.370;10.794;2023-04-06T05:00:06;-3.10;99.90
60868;DHT22;46702;48.370;10.794;2023-04-06T05:02:32;-3.10;99.90
60868;DHT22;46702;48.370;10.794;2023-04-06T05:04:57;-3.10;99.90
60868;DHT22;46702;48.370;10.794;2023-04-06T05:07:23;-3.10;99.90
60868;DHT22;46702;48.370;10.794;2023-04-06T05:09:49;-3.10;99.90
60868;DHT22;46702;48.370;10.794;2023-04-06T05:12:15;-3.10;99.90
60868;DHT22;46702;48.370;10.794;2023-04-06T05:14:41;-3.10;99.90
60868;DHT22;46702;48.370;10.794;2023-04-06T05:17:07;-3.00;99.90
60868;DHT22;46702;48.370;10.794;2023-04-06T05:19:32;-3.00;99.90
60868;DHT22;46702;48.370;10.794;2023-04-06T05:21:58;-3.10;99.90
60868;DHT22;46702;48.370;10.794;2023-04-06T05:24:24;-3.10;99.90
60868;DHT22;46702;48.370;10.794;2023-04-06T05:26:50;-3.10;99.90
60868;DHT22;46702;48.370;10.794;2023-04-06T05:29:16;-3.00;99.90
60868;DHT22;46702;48.370;10.794;2023-04-06T05:31:42;-3.00;99.90
60868;DHT22;46702;48.370;10.794;2023-04-06T05:34:08;-2.90;99.90
60868;DHT22;46702;48.370;10.794;2023-04-06T05:36:35;-2.80;99.90
60868;DHT22;46702;48.370;10.794;2023-04-06T05:39:00;-2.70;99.90
60868;DHT22;46702;48.370;10.794;2023-04-06T05:41:26;-2.60;99.90
60868;DHT22;46702;48.370;10.794;2023-04-06T05:43:51;-2.60;99.90
60868;DHT22;46702;48.370;10.794;2023-04-06T05:46:18;-2.50;99.90
60868;DHT22;46702;48.370;10.794;2023-04-06T05:48:43;-2.50;99.90
60868;DHT22;46702;48.370;10.794;2023-04-06T05:51:10;-2.50;99.90
60868;DHT22;46702;48.370;10.794;2023-04-06T05:53:36;-2.40;99.90
60868;DHT22;46702;48.370;10.794;2023-04-06T05:56:02;-2.40;99.90
60868;DHT22;46702;48.370;10.794;2023-04-06T05:58:29;-2.30;99.90
60868;DHT22;46702;48.370;10.794;2023-04-06T06:00:58;-2.10;99.90
60868;DHT22;46702;48.370;10.794;2023-04-06T06:03:24;-2.10;99.90
60868;DHT22;46702;48.370;10.794;2023-04-06T06:05:50;-2.00;99.90
60868;DHT22;46702;48.370;10.794;2023-04-06T06:08:15;-2.00;99.90
60868;DHT22;46702;48.370;10.794;2023-04-06T06:10:41;-2.00;99.90
60868;DHT22;46702;48.370;10.794;2023-04-06T06:13:07;-1.90;99.90
60868;DHT22;46702;48.370;10.794;2023-04-06T06:15:32;-1.70;99.90
60868;DHT22;46702;48.370;10.794;2023-04-06T06:17:58;-1.60;99.90
60868;DHT22;46702;48.370;10.794;2023-04-06T06:20:24;-1.50;99.90
60868;DHT22;46702;48.370;10.794;2023-04-06T06:22:50;-1.40;99.90
60868;DHT22;46702;48.370;10.794;2023-04-06T06:25:16;-1.30;99.90
60868;DHT22;46702;48.370;10.794;2023-04-06T06:27:41;-1.30;99.90
60868;DHT22;46702;48.370;10.794;2023-04-06T06:30:08;-1.20;99.90
60868;DHT22;46702;48.370;10.794;2023-04-06T06:32:34;-1.20;99.90
60868;DHT22;46702;48.370;10.794;2023-04-06T06:35:00;-1.00;99.90
60868;DHT22;46702;48.370;10.794;2023-04-06T06:37:25;-0.90;99.90
60868;DHT22;46702;48.370;10.794;2023-04-06T06:39:51;-0.80;99.90
60868;DHT22;46702;48.370;10.794;2023-04-06T06:42:17;-0.70;99.90
60868;DHT22;46702;48.370;10.794;2023-04-06T06:44:43;-0.50;99.90
60868;DHT22;46702;48.370;10.794;2023-04-06T06:47:08;-0.40;99.90
60868;DHT22;46702;48.370;10.794;2023-04-06T06:49:34;-0.30;99.90
60868;DHT22;46702;48.370;10.794;2023-04-06T06:52:00;-0.20;99.90
60868;DHT22;46702;48.370;10.794;2023-04-06T06:54:26;-0.10;99.90
60868;DHT22;46702;48.370;10.794;2023-04-06T06:56:52;0.10;99.90
60868;DHT22;46702;48.370;10.794;2023-04-06T06:59:17;0.30;99.90
60868;DHT22;46702;48.370;10.794;2023-04-06T07:01:43;0.40;99.90
60868;DHT22;46702;48.370;10.794;2023-04-06T07:04:09;0.50;99.90
60868;DHT22;46702;48.370;10.794;2023-04-06T07:06:35;0.60;99.90
60868;DHT22;46702;48.370;10.794;2023-04-06T07:09:02;0.60;99.90
60868;DHT22;46702;48.370;10.794;2023-04-06T07:11:30;0.80;99.90
60868;DHT22;46702;48.370;10.794;2023-04-06T07:13:56;1.00;99.90
60868;DHT22;46702;48.370;10.794;2023-04-06T07:16:22;1.20;99.90
60868;DHT22;46702;48.370;10.794;2023-04-06T07:18:47;1.40;99.90
60868;DHT22;46702;48.370;10.794;2023-04-06T07:21:13;1.60;99.90
60868;DHT22;46702;48.370;10.794;2023-04-06T07:23:39;1.70;99.90
60868;DHT22;46702;48.370;10.794;2023-04-06T07:26:05;1.90;99.90
60868;DHT22;46702;48.370;10.794;2023-04-06T07:28:31;2.10;99.90
60868;DHT22;46702;48.370;10.794;2023-04-06T07:30:56;2.10;99.90
60868;DHT22;46702;48.370;10.794;2023-04-06T07:33:22;2.30;99.90
60868;DHT22;46702;48.370;10.794;2023-04-06T07:35:48;2.50;99.90
60868;DHT22;46702;48.370;10.794;2023-04-06T07:38:13;2.70;99.90
60868;DHT22;46702;48.370;10.794;2023-04-06T07:40:39;2.90;99.90
60868;DHT22;46702;48.370;10.794;2023-04-06T07:43:05;2.90;99.90
60868;DHT22;46702;48.370;10.794;2023-04-06T07:45:31;3.20;99.90
60868;DHT22;46702;48.370;10.794;2023-04-06T07:47:57;3.50;99.90
60868;DHT22;46702;48.370;10.794;2023-04-06T07:50:22;3.70;99.90
60868;DHT22;46702;48.370;10.794;2023-04-06T07:52:48;3.80;99.90
60868;DHT22;46702;48.370;10.794;2023-04-06T07:55:14;4.00;99.90
60868;DHT22;46702;48.370;10.794;2023-04-06T07:57:40;4.20;99.90
60868;DHT22;46702;48.370;10.794;2023-04-06T08:00:06;4.30;99.30
60868;DHT22;46702;48.370;10.794;2023-04-06T08:02:35;4.50;96.60
60868;DHT22;46702;48.370;10.794;2023-04-06T08:05:00;4.60;95.20
60868;DHT22;46702;48.370;10.794;2023-04-06T08:07:26;4.80;99.70
60868;DHT22;46702;48.370;10.794;2023-04-06T08:09:52;5.00;93.70
60868;DHT22;46702;48.370;10.794;2023-04-06T08:12:17;5.20;97.00
60868;DHT22;46702;48.370;10.794;2023-04-06T08:14:43;5.40;94.00
60868;DHT22;46702;48.370;10.794;2023-04-06T08:17:09;5.60;92.40
60868;DHT22;46702;48.370;10.794;2023-04-06T08:19:34;5.70;87.60
60868;DHT22;46702;48.370;10.794;2023-04-06T08:22:00;5.90;88.20
60868;DHT22;46702;48.370;10.794;2023-04-06T08:24:26;5.90;82.00
60868;DHT22;46702;48.370;10.794;2023-04-06T08:26:52;6.10;85.40
60868;DHT22;46702;48.370;10.794;2023-04-06T08:29:18;6.20;86.20
60868;DHT22;46702;48.370;10.794;2023-04-06T08:31:46;6.30;79.10
60868;DHT22;46702;48.370;10.794;2023-04-06T08:34:12;6.40;74.00
60868;DHT22;46702;48.370;10.794;2023-04-06T08:36:37;6.20;71.90
60868;DHT22;46702;48.370;10.794;2023-04-06T08:39:03;6.40;84.40
60868;DHT22;46702;48.370;10.794;2023-04-06T08:41:29;6.70;83.20
60868;DHT22;46702;48.370;10.794;2023-04-06T08:43:58;6.90;81.30
60868;DHT22;46702;48.370;10.794;2023-04-06T08:46:24;7.20;73.50
60868;DHT22;46702;48.370;10.794;2023-04-06T08:49:05;7.30;66.90
60868;DHT22;46702;48.370;10.794;2023-04-06T08:51:36;7.60;65.50
60868;DHT22;46702;48.370;10.794;2023-04-06T08:54:02;7.60;63.60
60868;DHT22;46702;48.370;10.794;2023-04-06T08:56:28;7.40;62.90
60868;DHT22;46702;48.370;10.794;2023-04-06T08:58:55;7.50;62.80
60868;DHT22;46702;48.370;10.794;2023-04-06T09:01:23;7.60;65.30
60868;DHT22;46702;48.370;10.794;2023-04-06T09:03:51;7.70;60.50
60868;DHT22;46702;48.370;10.794;2023-04-06T09:06:18;7.70;61.60
60868;DHT22;46702;48.370;10.794;2023-04-06T09:08:44;7.50;63.30
60868;DHT22;46702;48.370;10.794;2023-04-06T09:11:10;7.40;64.70
60868;DHT22;46702;48.370;10.794;2023-04-06T09:13:53;7.70;65.00
60868;DHT22;46702;48.370;10.794;2023-04-06T09:16:20;8.00;67.10
60868;DHT22;46702;48.370;10.794;2023-04-06T09:18:45;8.40;66.80
60868;DHT22;46702;48.370;10.794;2023-04-06T09:21:12;8.30;59.50
60868;DHT22;46702;48.370;10.794;2023-04-06T09:23:38;8.30;62.00
60868;DHT22;46702;48.370;10.794;2023-04-06T09:28:53;8.60;65.80
60868;DHT22;46702;48.370;10.794;2023-04-06T09:31:23;8.90;62.10
60868;DHT22;46702;48.370;10.794;2023-04-06T09:33:50;8.60;57.90
60868;DHT22;46702;48.370;10.794;2023-04-06T09:36:18;8.90;56.90
60868;DHT22;46702;48.370;10.794;2023-04-06T09:38:56;9.10;57.50
60868;DHT22;46702;48.370;10.794;2023-04-06T09:41:24;9.60;58.50
60868;DHT22;46702;48.370;10.794;2023-04-06T09:44:03;9.80;59.10
60868;DHT22;46702;48.370;10.794;2023-04-06T09:46:32;9.70;54.50
60868;DHT22;46702;48.370;10.794;2023-04-06T09:49:00;9.70;53.90
60868;DHT22;46702;48.370;10.794;2023-04-06T09:54:01;9.90;52.70
60868;DHT22;46702;48.370;10.794;2023-04-06T09:56:37;9.90;47.90
60868;DHT22;46702;48.370;10.794;2023-04-06T09:59:11;10.10;50.90
60868;DHT22;46702;48.370;10.794;2023-04-06T10:01:39;10.10;51.90
60868;DHT22;46702;48.370;10.794;2023-04-06T10:06:35;10.20;50.00
60868;DHT22;46702;48.370;10.794;2023-04-06T10:09:02;10.40;53.20
60868;DHT22;46702;48.370;10.794;2023-04-06T10:11:30;10.50;49.20
60868;DHT22;46702;48.370;10.794;2023-04-06T10:13:56;10.50;49.70
60868;DHT22;46702;48.370;10.794;2023-04-06T10:16:22;10.30;53.40
60868;DHT22;46702;48.370;10.794;2023-04-06T10:18:54;10.70;53.30
60868;DHT22;46702;48.370;10.794;2023-04-06T10:21:24;10.90;51.20
60868;DHT22;46702;48.370;10.794;2023-04-06T10:23:55;10.60;50.60
60868;DHT22;46702;48.370;10.794;2023-04-06T10:26:23;10.70;51.80
60868;DHT22;46702;48.370;10.794;2023-04-06T10:28:50;10.70;52.10
60868;DHT22;46702;48.370;10.794;2023-04-06T10:31:27;10.80;52.70
60868;DHT22;46702;48.370;10.794;2023-04-06T10:34:02;11.10;49.70
60868;DHT22;46702;48.370;10.794;2023-04-06T10:36:32;10.90;50.40
60868;DHT22;46702;48.370;10.794;2023-04-06T10:39:03;11.00;50.70
60868;DHT22;46702;48.370;10.794;2023-04-06T10:41:33;11.10;49.40
60868;DHT22;46702;48.370;10.794;2023-04-06T10:44:00;11.30;47.60
60868;DHT22;46702;48.370;10.794;2023-04-06T10:46:28;11.50;48.80
60868;DHT22;46702;48.370;10.794;2023-04-06T10:48:55;11.60;49.30
60868;DHT22;46702;48.370;10.794;2023-04-06T10:51:25;11.90;47.20
60868;DHT22;46702;48.370;10.794;2023-04-06T10:53:55;12.00;48.10
60868;DHT22;46702;48.370;10.794;2023-04-06T10:56:24;12.00;50.70
60868;DHT22;46702;48.370;10.794;2023-04-06T10:58:54;11.60;43.90
60868;DHT22;46702;48.370;10.794;2023-04-06T11:01:23;11.60;45.10
60868;DHT22;46702;48.370;10.794;2023-04-06T11:03:52;11.60;43.70
60868;DHT22;46702;48.370;10.794;2023-04-06T11:08:45;11.60;45.10
60868;DHT22;46702;48.370;10.794;2023-04-06T11:11:12;11.50;42.80
60868;DHT22;46702;48.370;10.794;2023-04-06T11:13:55;11.30;43.20
60868;DHT22;46702;48.370;10.794;2023-04-06T11:16:29;11.40;45.70
60868;DHT22;46702;48.370;10.794;2023-04-06T11:19:00;11.50;46.60
60868;DHT22;46702;48.370;10.794;2023-04-06T11:21:32;11.60;46.80
60868;DHT22;46702;48.370;10.794;2023-04-06T11:24:15;11.10;40.80
60868;DHT22;46702;48.370;10.794;2023-04-06T11:26:43;11.20;44.80
60868;DHT22;46702;48.370;10.794;2023-04-06T11:29:10;11.60;44.80
60868;DHT22;46702;48.370;10.794;2023-04-06T11:34:24;11.60;44.00
60868;DHT22;46702;48.370;10.794;2023-04-06T11:37:01;11.80;42.40
60868;DHT22;46702;48.370;10.794;2023-04-06T11:39:28;11.30;43.20
60868;DHT22;46702;48.370;10.794;2023-04-06T11:41:58;11.40;44.70
60868;DHT22;46702;48.370;10.794;2023-04-06T11:44:39;11.70;44.90
60868;DHT22;46702;48.370;10.794;2023-04-06T11:47:09;11.90;44.00
60868;DHT22;46702;48.370;10.794;2023-04-06T11:49:43;12.00;41.40
60868;DHT22;46702;48.370;10.794;2023-04-06T11:52:26;12.00;42.70
60868;DHT22;46702;48.370;10.794;2023-04-06T11:54:54;11.50;42.30
60868;DHT22;46702;48.370;10.794;2023-04-06T11:57:22;11.30;44.80
60868;DHT22;46702;48.370;10.794;2023-04-06T11:59:52;11.30;39.80
60868;DHT22;46702;48.370;10.794;2023-04-06T12:02:18;11.60;43.90
60868;DHT22;46702;48.370;10.794;2023-04-06T12:04:44;11.70;46.30
60868;DHT22;46702;48.370;10.794;2023-04-06T12:07:10;11.70;44.70
60868;DHT22;46702;48.370;10.794;2023-04-06T12:09:36;11.90;44.30
60868;DHT22;46702;48.370;10.794;2023-04-06T12:12:02;11.90;42.20
60868;DHT22;46702;48.370;10.794;2023-04-06T12:14:29;12.00;43.80
60868;DHT22;46702;48.370;10.794;2023-04-06T12:16:56;12.10;42.30
60868;DHT22;46702;48.370;10.794;2023-04-06T12:19:23;12.00;45.90
60868;DHT22;46702;48.370;10.794;2023-04-06T12:21:53;11.60;44.20
60868;DHT22;46702;48.370;10.794;2023-04-06T12:24:20;11.20;43.10
60868;DHT22;46702;48.370;10.794;2023-04-06T12:26:45;11.40;44.00
60868;DHT22;46702;48.370;10.794;2023-04-06T12:29:11;11.40;44.90
60868;DHT22;46702;48.370;10.794;2023-04-06T12:31:39;11.70;45.00
60868;DHT22;46702;48.370;10.794;2023-04-06T12:34:06;11.70;43.70
60868;DHT22;46702;48.370;10.794;2023-04-06T12:36:32;12.00;44.40
60868;DHT22;46702;48.370;10.794;2023-04-06T12:38:58;12.00;44.00
60868;DHT22;46702;48.370;10.794;2023-04-06T12:41:24;11.90;44.10
60868;DHT22;46702;48.370;10.794;2023-04-06T12:43:50;12.00;48.80
60868;DHT22;46702;48.370;10.794;2023-04-06T12:46:16;12.40;47.50
60868;DHT22;46702;48.370;10.794;2023-04-06T12:48:42;12.20;44.10
60868;DHT22;46702;48.370;10.794;2023-04-06T12:51:08;12.20;44.40
60868;DHT22;46702;48.370;10.794;2023-04-06T12:53:34;11.90;45.40
60868;DHT22;46702;48.370;10.794;2023-04-06T12:56:00;11.90;41.40
60868;DHT22;46702;48.370;10.794;2023-04-06T12:58:26;11.90;42.40
60868;DHT22;46702;48.370;10.794;2023-04-06T13:00:53;11.60;39.20
60868;DHT22;46702;48.370;10.794;2023-04-06T13:03:19;11.50;38.20
60868;DHT22;46702;48.370;10.794;2023-04-06T13:05:49;11.90;39.40
60868;DHT22;46702;48.370;10.794;2023-04-06T13:08:16;12.00;40.10
60868;DHT22;46702;48.370;10.794;2023-04-06T13:10:47;12.30;41.00
60868;DHT22;46702;48.370;10.794;2023-04-06T13:13:14;12.60;42.70
60868;DHT22;46702;48.370;10.794;2023-04-06T13:15:40;12.50;39.40
60868;DHT22;46702;48.370;10.794;2023-04-06T13:18:07;12.60;39.50
60868;DHT22;46702;48.370;10.794;2023-04-06T13:20:32;12.90;39.30
60868;DHT22;46702;48.370;10.794;2023-04-06T13:22:58;12.50;40.00
60868;DHT22;46702;48.370;10.794;2023-04-06T13:25:24;12.50;40.10
60868;DHT22;46702;48.370;10.794;2023-04-06T13:27:49;12.60;40.60
60868;DHT22;46702;48.370;10.794;2023-04-06T13:30:16;12.10;36.80
60868;DHT22;46702;48.370;10.794;2023-04-06T13:32:41;12.20;40.70
60868;DHT22;46702;48.370;10.794;2023-04-06T13:35:08;12.60;38.40
60868;DHT22;46702;48.370;10.794;2023-04-06T13:37:34;12.90;39.10
60868;DHT22;46702;48.370;10.794;2023-04-06T13:40:01;12.50;38.00
60868;DHT22;46702;48.370;10.794;2023-04-06T13:42:28;12.50;38.90
60868;DHT22;46702;48.370;10.794;2023-04-06T13:44:54;12.80;41.50
60868;DHT22;46702;48.370;10.794;2023-04-06T13:47:19;13.00;40.00
60868;DHT22;46702;48.370;10.794;2023-04-06T13:49:46;12.70;41.60
60868;DHT22;46702;48.370;10.794;2023-04-06T13:52:13;12.70;41.80
60868;DHT22;46702;48.370;10.794;2023-04-06T13:54:38;12.70;43.30
60868;DHT22;46702;48.370;10.794;2023-04-06T13:57:04;12.80;43.90
60868;DHT22;46702;48.370;10.794;2023-04-06T13:59:34;13.30;41.90
60868;DHT22;46702;48.370;10.794;2023-04-06T14:02:01;13.40;40.70
60868;DHT22;46702;48.370;10.794;2023-04-06T14:04:27;13.50;40.50
60868;DHT22;46702;48.370;10.794;2023-04-06T14:06:52;13.60;41.10
60868;DHT22;46702;48.370;10.794;2023-04-06T14:09:18;13.00;35.70
60868;DHT22;46702;48.370;10.794;2023-04-06T14:11:44;12.50;39.00
60868;DHT22;46702;48.370;10.794;2023-04-06T14:14:09;12.70;39.60
60868;DHT22;46702;48.370;10.794;2023-04-06T14:16:35;13.00;39.90
60868;DHT22;46702;48.370;10.794;2023-04-06T14:19:01;13.10;37.90
60868;DHT22;46702;48.370;10.794;2023-04-06T14:21:27;13.10;41.00
60868;DHT22;46702;48.370;10.794;2023-04-06T14:23:52;13.10;39.60
60868;DHT22;46702;48.370;10.794;2023-04-06T14:26:18;13.10;39.50
60868;DHT22;46702;48.370;10.794;2023-04-06T14:28:44;13.10;40.50
60868;DHT22;46702;48.370;10.794;2023-04-06T14:31:13;13.10;40.70
60868;DHT22;46702;48.370;10.794;2023-04-06T14:33:40;12.70;36.50
60868;DHT22;46702;48.370;10.794;2023-04-06T14:36:07;12.70;40.30
60868;DHT22;46702;48.370;10.794;2023-04-06T14:38:33;12.70;38.40
60868;DHT22;46702;48.370;10.794;2023-04-06T14:40:59;12.40;39.40
60868;DHT22;46702;48.370;10.794;2023-04-06T14:43:24;12.20;39.80
60868;DHT22;46702;48.370;10.794;2023-04-06T14:45:51;12.00;39.60
60868;DHT22;46702;48.370;10.794;2023-04-06T14:48:17;12.10;41.70
60868;DHT22;46702;48.370;10.794;2023-04-06T14:50:54;12.20;40.20
60868;DHT22;46702;48.370;10.794;2023-04-06T14:53:20;12.20;39.90
60868;DHT22;46702;48.370;10.794;2023-04-06T14:55:46;12.30;39.50
60868;DHT22;46702;48.370;10.794;2023-04-06T14:58:12;12.40;39.80
60868;DHT22;46702;48.370;10.794;2023-04-06T15:00:38;12.40;39.20
60868;DHT22;46702;48.370;10.794;2023-04-06T15:03:04;12.50;40.40
60868;DHT22;46702;48.370;10.794;2023-04-06T15:05:30;12.40;40.40
60868;DHT22;46702;48.370;10.794;2023-04-06T15:07:56;12.20;40.60
60868;DHT22;46702;48.370;10.794;2023-04-06T15:10:22;12.20;42.10
60868;DHT22;46702;48.370;10.794;2023-04-06T15:12:47;12.30;40.50
60868;DHT22;46702;48.370;10.794;2023-04-06T15:15:13;12.20;41.10
60868;DHT22;46702;48.370;10.794;2023-04-06T15:17:39;12.10;42.20
60868;DHT22;46702;48.370;10.794;2023-04-06T15:20:05;12.10;41.60
60868;DHT22;46702;48.370;10.794;2023-04-06T15:22:31;12.20;41.00
60868;DHT22;46702;48.370;10.794;2023-04-06T15:24:56;12.30;37.90
60868;DHT22;46702;48.370;10.794;2023-04-06T15:27:22;12.40;40.30
60868;DHT22;46702;48.370;10.794;2023-04-06T15:29:48;12.30;36.80
60868;DHT22;46702;48.370;10.794;2023-04-06T15:32:13;12.30;38.10
60868;DHT22;46702;48.370;10.794;2023-04-06T15:34:39;12.30;38.20
60868;DHT22;46702;48.370;10.794;2023-04-06T15:37:05;12.40;38.20